sensor_id;sensor_type;location;lat;lon;timestamp;temperature;humidity
48836;DHT22;62581;47.342;7.908;2022-10-17T00:00:35;14.10;99.90
48836;DHT22;62581;47.342;7.908;2022-10-17T00:03:02;14.10;99.90
48836;DHT22;62581;47.342;7.908;2022-10-17T00:05:29;14.10;99.90
48836;DHT22;62581;47.342;7.908;2022-10-17T00:07:56;14.10;99.90
48836;DHT22;62581;47.342;7.908;2022-10-17T00:10:23;14.00;99.90
48836;DHT22;62581;47.342;7.908;2022-10-17T00:12:50;14.00;99.90
48836;DHT22;62581;47.342;7.908;2022-10-17T00:15:20;14.00;99.90
48836;DHT22;62581;47.342;7.908;2022-10-17T00:17:49;14.00;99.90
48836;DHT22;62581;47.342;7.908;2022-10-17T00:20:16;13.90;99.90
48836;DHT22;62581;47.342;7.908;2022-10-17T00:22:42;13.90;99.90
48836;DHT22;62581;47.342;7.908;2022-10-17T00:25:09;13.90;99.90
48836;DHT22;62581;47.342;7.908;2022-10-17T00:27:36;13.90;99.90
48836;DHT22;62581;47.342;7.908;2022-10-17T00:30:04;13.90;99.90
48836;DHT22;62581;47.342;7.908;2022-10-17T00:32:31;13.80;99.90
48836;DHT22;62581;47.342;7.908;2022-10-17T00:34:59;13.80;99.90
48836;DHT22;62581;47.342;7.908;2022-10-17T00:37:26;13.80;99.90
48836;DHT22;62581;47.342;7.908;2022-10-17T00:39:53;13.80;99.90
48836;DHT22;62581;47.342;7.908;2022-10-17T00:42:20;13.80;99.90
48836;DHT22;62581;47.342;7.908;2022-10-17T00:44:59;13.80;99.90
48836;DHT22;62581;47.342;7.908;2022-10-17T00:47:26;13.80;99.90
48836;DHT22;62581;47.342;7.908;2022-10-17T00:49:53;13.70;99.90
48836;DHT22;62581;47.342;7.908;2022-10-17T00:52:22;13.70;99.90
48836;DHT22;62581;47.342;7.908;2022-10-17T00:54:50;13.70;99.90
48836;DHT22;62581;47.342;7.908;2022-10-17T00:57:20;13.70;99.90
48836;DHT22;62581;47.342;7.908;2022-10-17T00:59:47;13.60;99.90
48836;DHT22;62581;47.342;7.908;2022-10-17T01:02:17;13.60;99.90
48836;DHT22;62581;47.342;7.908;2022-10-17T01:04:46;13.60;99.90
48836;DHT22;62581;47.342;7.908;2022-10-17T01:07:13;13.60;99.90
48836;DHT22;62581;47.342;7.908;2022-10-17T01:09:41;13.60;99.90
48836;DHT22;62581;47.342;7.908;2022-10-17T01:12:10;13.60;99.90
48836;DHT22;62581;47.342;7.908;2022-10-17T01:14:42;13.60;99.90
48836;DHT22;62581;47.342;7.908;2022-10-17T01:17:13;13.60;99.90
48836;DHT22;62581;47.342;7.908;2022-10-17T01:19:50;13.60;99.90
48836;DHT22;62581;47.342;7.908;2022-10-17T01:22:22;13.50;99.90
48836;DHT22;62581;47.342;7.908;2022-10-17T01:25:00;13.50;99.90
48836;DHT22;62581;47.342;7.908;2022-10-17T01:30:22;13.40;99.90
48836;DHT22;62581;47.342;7.908;2022-10-17T01:32:54;13.40;99.90
48836;DHT22;62581;47.342;7.908;2022-10-17T01:35:24;13.40;99.90
48836;DHT22;62581;47.342;7.908;2022-10-17T01:37:55;13.40;99.90
48836;DHT22;62581;47.342;7.908;2022-10-17T01:40:23;13.40;99.90
48836;DHT22;62581;47.342;7.908;2022-10-17T01:42:52;13.30;99.90
48836;DHT22;62581;47.342;7.908;2022-10-17T01:45:22;13.30;99.90
48836;DHT22;62581;47.342;7.908;2022-10-17T01:47:51;13.30;99.90
48836;DHT22;62581;47.342;7.908;2022-10-17T01:50:21;13.30;99.90
48836;DHT22;62581;47.342;7.908;2022-10-17T01:52:49;13.20;99.90
48836;DHT22;62581;47.342;7.908;2022-10-17T01:55:19;13.30;99.90
48836;DHT22;62581;47.342;7.908;2022-10-17T01:57:47;13.30;99.90
48836;DHT22;62581;47.342;7.908;2022-10-17T02:00:16;13.30;99.90
48836;DHT22;62581;47.342;7.908;2022-10-17T02:02:44;13.20;99.90
48836;DHT22;62581;47.342;7.908;2022-10-17T02:05:12;13.20;99.90
48836;DHT22;62581;47.342;7.908;2022-10-17T02:07:41;13.20;99.90
48836;DHT22;62581;47.342;7.908;2022-10-17T02:10:09;13.20;99.90
48836;DHT22;62581;47.342;7.908;2022-10-17T02:12:40;13.20;99.90
48836;DHT22;62581;47.342;7.908;2022-10-17T02:17:57;13.20;99.90
48836;DHT22;62581;47.342;7.908;2022-10-17T02:20:30;13.10;99.90
48836;DHT22;62581;47.342;7.908;2022-10-17T02:23:00;13.10;99.90
48836;DHT22;62581;47.342;7.908;2022-10-17T02:25:30;13.20;99.90
48836;DHT22;62581;47.342;7.908;2022-10-17T02:28:02;13.20;99.90
48836;DHT22;62581;47.342;7.908;2022-10-17T02:30:33;13.20;99.90
48836;DHT22;62581;47.342;7.908;2022-10-17T02:33:03;13.20;99.90
48836;DHT22;62581;47.342;7.908;2022-10-17T02:35:34;13.10;99.90
48836;DHT22;62581;47.342;7.908;2022-10-17T02:38:03;13.20;99.90
48836;DHT22;62581;47.342;7.908;2022-10-17T02:40:30;13.10;99.90
48836;DHT22;62581;47.342;7.908;2022-10-17T02:42:57;13.10;99.90
48836;DHT22;62581;47.342;7.908;2022-10-17T02:45:25;13.00;99.90
48836;DHT22;62581;47.342;7.908;2022-10-17T02:47:54;13.00;99.90
48836;DHT22;62581;47.342;7.908;2022-10-17T02:50:21;13.00;99.90
48836;DHT22;62581;47.342;7.908;2022-10-17T02:52:54;13.00;99.90
48836;DHT22;62581;47.342;7.908;2022-10-17T02:55:29;12.90;99.90
48836;DHT22;62581;47.342;7.908;2022-10-17T02:57:58;12.90;99.90
48836;DHT22;62581;47.342;7.908;2022-10-17T03:00:26;12.80;99.90
48836;DHT22;62581;47.342;7.908;2022-10-17T03:02:53;12.80;99.90
48836;DHT22;62581;47.342;7.908;2022-10-17T03:05:20;12.80;99.90
48836;DHT22;62581;47.342;7.908;2022-10-17T03:07:48;12.80;99.90
48836;DHT22;62581;47.342;7.908;2022-10-17T03:10:15;12.70;99.90
48836;DHT22;62581;47.342;7.908;2022-10-17T03:12:43;12.70;99.90
48836;DHT22;62581;47.342;7.908;2022-10-17T03:15:11;12.60;99.90
48836;DHT22;62581;47.342;7.908;2022-10-17T03:17:37;12.50;99.90
48836;DHT22;62581;47.342;7.908;2022-10-17T03:20:05;12.50;99.90
48836;DHT22;62581;47.342;7.908;2022-10-17T03:22:32;12.50;99.90
48836;DHT22;62581;47.342;7.908;2022-10-17T03:24:59;12.40;99.90
48836;DHT22;62581;47.342;7.908;2022-10-17T03:27:25;12.40;99.90
48836;DHT22;62581;47.342;7.908;2022-10-17T03:29:54;12.40;99.90
48836;DHT22;62581;47.342;7.908;2022-10-17T03:32:20;12.30;99.90
48836;DHT22;62581;47.342;7.908;2022-10-17T03:34:47;12.30;99.90
48836;DHT22;62581;47.342;7.908;2022-10-17T03:37:14;12.30;99.90
48836;DHT22;62581;47.342;7.908;2022-10-17T03:39:40;12.20;99.90
48836;DHT22;62581;47.342;7.908;2022-10-17T03:42:07;12.20;99.90
48836;DHT22;62581;47.342;7.908;2022-10-17T03:44:34;12.20;99.90
48836;DHT22;62581;47.342;7.908;2022-10-17T03:47:02;12.20;99.90
48836;DHT22;62581;47.342;7.908;2022-10-17T03:49:29;12.30;99.90
48836;DHT22;62581;47.342;7.908;2022-10-17T03:51:56;12.30;99.90
48836;DHT22;62581;47.342;7.908;2022-10-17T03:54:22;12.30;99.90
48836;DHT22;62581;47.342;7.908;2022-10-17T03:56:49;12.30;99.90
48836;DHT22;62581;47.342;7.908;2022-10-17T03:59:16;12.40;99.90
48836;DHT22;62581;47.342;7.908;2022-10-17T04:01:43;12.40;99.90
48836;DHT22;62581;47.342;7.908;2022-10-17T04:04:11;12.40;99.90
48836;DHT22;62581;47.342;7.908;2022-10-17T04:06:38;12.40;99.90
48836;DHT22;62581;47.342;7.908;2022-10-17T04:09:06;12.40;99.90
48836;DHT22;62581;47.342;7.908;2022-10-17T04:11:32;12.40;99.90
48836;DHT22;62581;47.342;7.908;2022-10-17T04:13:59;12.30;99.90
48836;DHT22;62581;47.342;7.908;2022-10-17T04:16:26;12.30;99.90
48836;DHT22;62581;47.342;7.908;2022-10-17T04:18:54;12.30;99.90
48836;DHT22;62581;47.342;7.908;2022-10-17T04:21:23;12.30;99.90
48836;DHT22;62581;47.342;7.908;2022-10-17T04:23:52;12.30;99.90
48836;DHT22;62581;47.342;7.908;2022-10-17T04:26:19;12.30;99.90
48836;DHT22;62581;47.342;7.908;2022-10-17T04:28:46;12.30;99.90
48836;DHT22;62581;47.342;7.908;2022-10-17T04:31:13;12.30;99.90
48836;DHT22;62581;47.342;7.908;2022-10-17T04:33:40;12.30;99.90
48836;DHT22;62581;47.342;7.908;2022-10-17T04:36:09;12.30;99.90
48836;DHT22;62581;47.342;7.908;2022-10-17T04:38:37;12.30;99.90
48836;DHT22;62581;47.342;7.908;2022-10-17T04:41:05;12.20;99.90
48836;DHT22;62581;47.342;7.908;2022-10-17T04:43:34;12.20;99.90
48836;DHT22;62581;47.342;7.908;2022-10-17T04:46:02;12.20;99.90
48836;DHT22;62581;47.342;7.908;2022-10-17T04:48:29;12.20;99.90
48836;DHT22;62581;47.342;7.908;2022-10-17T04:50:57;12.30;99.90
48836;DHT22;62581;47.342;7.908;2022-10-17T04:53:24;12.30;99.90
48836;DHT22;62581;47.342;7.908;2022-10-17T04:55:52;12.30;99.90
48836;DHT22;62581;47.342;7.908;2022-10-17T04:58:19;12.30;99.90
48836;DHT22;62581;47.342;7.908;2022-10-17T05:00:46;12.40;99.90
48836;DHT22;62581;47.342;7.908;2022-10-17T05:03:13;12.40;99.90
48836;DHT22;62581;47.342;7.908;2022-10-17T05:05:40;12.50;99.90
48836;DHT22;62581;47.342;7.908;2022-10-17T05:08:07;12.50;99.90
48836;DHT22;62581;47.342;7.908;2022-10-17T05:10:35;12.50;99.90
48836;DHT22;62581;47.342;7.908;2022-10-17T05:13:03;12.50;99.90
48836;DHT22;62581;47.342;7.908;2022-10-17T05:15:30;12.50;99.90
48836;DHT22;62581;47.342;7.908;2022-10-17T05:17:57;12.50;99.90
48836;DHT22;62581;47.342;7.908;2022-10-17T05:20:24;12.50;99.90
48836;DHT22;62581;47.342;7.908;2022-10-17T05:22:51;12.50;99.90
48836;DHT22;62581;47.342;7.908;2022-10-17T05:25:18;12.50;99.90
48836;DHT22;62581;47.342;7.908;2022-10-17T05:27:45;12.50;99.90
48836;DHT22;62581;47.342;7.908;2022-10-17T05:30:13;12.50;99.90
48836;DHT22;62581;47.342;7.908;2022-10-17T05:32:40;12.50;99.90
48836;DHT22;62581;47.342;7.908;2022-10-17T05:35:07;12.50;99.90
48836;DHT22;62581;47.342;7.908;2022-10-17T05:37:33;12.50;99.90
48836;DHT22;62581;47.342;7.908;2022-10-17T05:40:00;12.50;99.90
48836;DHT22;62581;47.342;7.908;2022-10-17T05:42:27;12.50;99.90
48836;DHT22;62581;47.342;7.908;2022-10-17T05:44:54;12.50;99.90
48836;DHT22;62581;47.342;7.908;2022-10-17T05:47:22;12.50;99.90
48836;DHT22;62581;47.342;7.908;2022-10-17T05:49:49;12.50;99.90
48836;DHT22;62581;47.342;7.908;2022-10-17T05:52:16;12.50;99.90
48836;DHT22;62581;47.342;7.908;2022-10-17T05:54:43;12.50;99.90
48836;DHT22;62581;47.342;7.908;2022-10-17T05:57:09;12.50;99.90
48836;DHT22;62581;47.342;7.908;2022-10-17T05:59:36;12.50;99.90
48836;DHT22;62581;47.342;7.908;2022-10-17T06:02:03;12.50;99.90
48836;DHT22;62581;47.342;7.908;2022-10-17T06:04:31;12.50;99.90
48836;DHT22;62581;47.342;7.908;2022-10-17T06:06:58;12.50;99.90
48836;DHT22;62581;47.342;7.908;2022-10-17T06:09:25;12.60;99.90
48836;DHT22;62581;47.342;7.908;2022-10-17T06:11:52;12.60;99.90
48836;DHT22;62581;47.342;7.908;2022-10-17T06:14:18;12.70;99.90
48836;DHT22;62581;47.342;7.908;2022-10-17T06:16:45;12.70;99.90
48836;DHT22;62581;47.342;7.908;2022-10-17T06:19:12;12.70;99.90
48836;DHT22;62581;47.342;7.908;2022-10-17T06:21:40;12.70;99.90
48836;DHT22;62581;47.342;7.908;2022-10-17T06:24:07;12.70;99.90
48836;DHT22;62581;47.342;7.908;2022-10-17T06:26:33;12.80;99.90
48836;DHT22;62581;47.342;7.908;2022-10-17T06:29:00;12.80;99.90
48836;DHT22;62581;47.342;7.908;2022-10-17T06:31:27;12.80;99.90
48836;DHT22;62581;47.342;7.908;2022-10-17T06:33:54;12.90;99.90
48836;DHT22;62581;47.342;7.908;2022-10-17T06:36:21;12.90;99.90
48836;DHT22;62581;47.342;7.908;2022-10-17T06:38:49;13.00;99.90
48836;DHT22;62581;47.342;7.908;2022-10-17T06:41:16;13.00;99.90
48836;DHT22;62581;47.342;7.908;2022-10-17T06:43:44;13.00;99.90
48836;DHT22;62581;47.342;7.908;2022-10-17T06:46:11;12.90;99.90
48836;DHT22;62581;47.342;7.908;2022-10-17T06:48:38;12.80;99.90
48836;DHT22;62581;47.342;7.908;2022-10-17T06:51:05;12.60;99.90
48836;DHT22;62581;47.342;7.908;2022-10-17T06:53:34;12.50;99.90
48836;DHT22;62581;47.342;7.908;2022-10-17T06:56:02;12.50;99.90
48836;DHT22;62581;47.342;7.908;2022-10-17T06:58:30;12.40;99.90
48836;DHT22;62581;47.342;7.908;2022-10-17T07:00:58;12.20;99.90
48836;DHT22;62581;47.342;7.908;2022-10-17T07:03:25;12.30;99.90
48836;DHT22;62581;47.342;7.908;2022-10-17T07:05:52;12.30;99.90
48836;DHT22;62581;47.342;7.908;2022-10-17T07:08:19;12.40;99.90
48836;DHT22;62581;47.342;7.908;2022-10-17T07:10:46;12.50;99.90
48836;DHT22;62581;47.342;7.908;2022-10-17T07:13:14;12.60;99.90
48836;DHT22;62581;47.342;7.908;2022-10-17T07:15:41;12.70;99.90
48836;DHT22;62581;47.342;7.908;2022-10-17T07:18:08;12.70;99.90
48836;DHT22;62581;47.342;7.908;2022-10-17T07:20:35;12.80;99.90
48836;DHT22;62581;47.342;7.908;2022-10-17T07:23:02;12.80;99.90
48836;DHT22;62581;47.342;7.908;2022-10-17T07:25:29;12.90;99.90
48836;DHT22;62581;47.342;7.908;2022-10-17T07:27:56;13.00;99.90
48836;DHT22;62581;47.342;7.908;2022-10-17T07:30:24;13.10;99.90
48836;DHT22;62581;47.342;7.908;2022-10-17T07:32:51;13.10;99.90
48836;DHT22;62581;47.342;7.908;2022-10-17T07:35:18;13.20;99.90
48836;DHT22;62581;47.342;7.908;2022-10-17T07:37:45;13.20;99.90
48836;DHT22;62581;47.342;7.908;2022-10-17T07:40:12;13.20;99.90
48836;DHT22;62581;47.342;7.908;2022-10-17T07:42:39;13.30;99.90
48836;DHT22;62581;47.342;7.908;2022-10-17T07:45:06;13.30;99.90
48836;DHT22;62581;47.342;7.908;2022-10-17T07:47:35;13.40;99.90
48836;DHT22;62581;47.342;7.908;2022-10-17T07:50:01;13.50;99.90
48836;DHT22;62581;47.342;7.908;2022-10-17T07:52:29;13.60;99.90
48836;DHT22;62581;47.342;7.908;2022-10-17T07:54:55;13.70;99.90
48836;DHT22;62581;47.342;7.908;2022-10-17T07:57:22;13.80;99.90
48836;DHT22;62581;47.342;7.908;2022-10-17T07:59:49;13.90;99.90
48836;DHT22;62581;47.342;7.908;2022-10-17T08:02:17;14.00;99.90
48836;DHT22;62581;47.342;7.908;2022-10-17T08:04:47;14.20;99.90
48836;DHT22;62581;47.342;7.908;2022-10-17T08:07:14;14.30;99.90
48836;DHT22;62581;47.342;7.908;2022-10-17T08:09:41;14.50;99.90
48836;DHT22;62581;47.342;7.908;2022-10-17T08:12:08;14.50;99.90
48836;DHT22;62581;47.342;7.908;2022-10-17T08:14:35;14.40;99.90
48836;DHT22;62581;47.342;7.908;2022-10-17T08:17:03;14.30;99.90
48836;DHT22;62581;47.342;7.908;2022-10-17T08:19:30;14.30;99.90
48836;DHT22;62581;47.342;7.908;2022-10-17T08:21:58;14.20;99.90
48836;DHT22;62581;47.342;7.908;2022-10-17T08:24:26;14.10;99.90
48836;DHT22;62581;47.342;7.908;2022-10-17T08:26:53;14.10;99.90
48836;DHT22;62581;47.342;7.908;2022-10-17T08:29:21;14.10;99.90
48836;DHT22;62581;47.342;7.908;2022-10-17T08:31:48;14.10;99.90
48836;DHT22;62581;47.342;7.908;2022-10-17T08:34:15;14.10;99.90
48836;DHT22;62581;47.342;7.908;2022-10-17T08:36:42;14.00;99.90
48836;DHT22;62581;47.342;7.908;2022-10-17T08:39:10;14.00;99.90
48836;DHT22;62581;47.342;7.908;2022-10-17T08:41:55;14.00;99.90
48836;DHT22;62581;47.342;7.908;2022-10-17T08:44:29;13.90;99.90
48836;DHT22;62581;47.342;7.908;2022-10-17T08:47:00;13.90;99.90
48836;DHT22;62581;47.342;7.908;2022-10-17T08:49:30;13.90;99.90
48836;DHT22;62581;47.342;7.908;2022-10-17T08:52:01;13.90;99.90
48836;DHT22;62581;47.342;7.908;2022-10-17T08:54:32;14.00;99.90
48836;DHT22;62581;47.342;7.908;2022-10-17T08:57:04;14.00;99.90
48836;DHT22;62581;47.342;7.908;2022-10-17T08:59:30;14.10;99.90
48836;DHT22;62581;47.342;7.908;2022-10-17T09:01:59;14.30;99.90
48836;DHT22;62581;47.342;7.908;2022-10-17T09:04:43;14.40;99.90
48836;DHT22;62581;47.342;7.908;2022-10-17T09:07:12;14.50;99.90
48836;DHT22;62581;47.342;7.908;2022-10-17T09:09:46;14.60;99.90
48836;DHT22;62581;47.342;7.908;2022-10-17T09:12:16;14.70;99.90
48836;DHT22;62581;47.342;7.908;2022-10-17T09:17:28;14.90;99.90
48836;DHT22;62581;47.342;7.908;2022-10-17T09:19:58;15.00;99.90
48836;DHT22;62581;47.342;7.908;2022-10-17T09:22:28;15.10;99.90
48836;DHT22;62581;47.342;7.908;2022-10-17T09:24:58;15.10;99.90
48836;DHT22;62581;47.342;7.908;2022-10-17T09:27:31;15.10;99.90
48836;DHT22;62581;47.342;7.908;2022-10-17T09:30:01;15.20;99.90
48836;DHT22;62581;47.342;7.908;2022-10-17T09:32:36;15.30;99.90
48836;DHT22;62581;47.342;7.908;2022-10-17T09:35:03;15.50;99.90
48836;DHT22;62581;47.342;7.908;2022-10-17T09:37:30;15.70;99.90
48836;DHT22;62581;47.342;7.908;2022-10-17T09:39:59;15.80;99.90
48836;DHT22;62581;47.342;7.908;2022-10-17T09:42:26;16.00;99.90
48836;DHT22;62581;47.342;7.908;2022-10-17T09:44:54;16.10;99.90
48836;DHT22;62581;47.342;7.908;2022-10-17T09:47:24;16.20;99.90
48836;DHT22;62581;47.342;7.908;2022-10-17T09:49:53;16.30;99.90
48836;DHT22;62581;47.342;7.908;2022-10-17T09:52:21;16.40;99.90
48836;DHT22;62581;47.342;7.908;2022-10-17T09:54:50;16.50;99.90
48836;DHT22;62581;47.342;7.908;2022-10-17T09:57:19;16.60;99.90
48836;DHT22;62581;47.342;7.908;2022-10-17T09:59:47;16.80;99.90
48836;DHT22;62581;47.342;7.908;2022-10-17T10:02:22;16.90;99.90
48836;DHT22;62581;47.342;7.908;2022-10-17T10:04:56;17.00;99.90
48836;DHT22;62581;47.342;7.908;2022-10-17T10:07:23;17.00;99.90
48836;DHT22;62581;47.342;7.908;2022-10-17T10:09:51;17.10;99.90
48836;DHT22;62581;47.342;7.908;2022-10-17T10:12:20;17.20;99.90
48836;DHT22;62581;47.342;7.908;2022-10-17T10:14:47;17.20;99.90
48836;DHT22;62581;47.342;7.908;2022-10-17T10:19:58;17.40;99.90
48836;DHT22;62581;47.342;7.908;2022-10-17T10:22:25;17.40;99.90
48836;DHT22;62581;47.342;7.908;2022-10-17T10:25:11;17.60;99.90
48836;DHT22;62581;47.342;7.908;2022-10-17T10:27:42;17.70;99.90
48836;DHT22;62581;47.342;7.908;2022-10-17T10:30:15;17.80;99.90
48836;DHT22;62581;47.342;7.908;2022-10-17T10:32:43;17.90;99.90
48836;DHT22;62581;47.342;7.908;2022-10-17T10:35:17;17.90;99.90
48836;DHT22;62581;47.342;7.908;2022-10-17T10:37:45;18.00;99.90
48836;DHT22;62581;47.342;7.908;2022-10-17T10:40:14;18.00;99.90
48836;DHT22;62581;47.342;7.908;2022-10-17T10:42:45;18.10;99.90
48836;DHT22;62581;47.342;7.908;2022-10-17T10:45:14;18.10;99.90
48836;DHT22;62581;47.342;7.908;2022-10-17T10:47:48;18.10;99.90
48836;DHT22;62581;47.342;7.908;2022-10-17T10:50:17;18.20;99.90
48836;DHT22;62581;47.342;7.908;2022-10-17T10:52:48;18.20;99.90
48836;DHT22;62581;47.342;7.908;2022-10-17T10:55:21;18.30;99.90
48836;DHT22;62581;47.342;7.908;2022-10-17T10:57:51;18.30;99.90
48836;DHT22;62581;47.342;7.908;2022-10-17T11:00:20;18.40;99.90
48836;DHT22;62581;47.342;7.908;2022-10-17T11:02:51;18.50;99.90
48836;DHT22;62581;47.342;7.908;2022-10-17T11:05:21;18.50;99.90
48836;DHT22;62581;47.342;7.908;2022-10-17T11:07:50;18.60;99.90
48836;DHT22;62581;47.342;7.908;2022-10-17T11:10:21;18.80;99.90
48836;DHT22;62581;47.342;7.908;2022-10-17T11:12:51;18.90;99.90
48836;DHT22;62581;47.342;7.908;2022-10-17T11:15:20;18.90;99.90
48836;DHT22;62581;47.342;7.908;2022-10-17T11:17:51;19.00;99.90
48836;DHT22;62581;47.342;7.908;2022-10-17T11:20:22;19.10;99.90
48836;DHT22;62581;47.342;7.908;2022-10-17T11:22:53;19.10;99.90
48836;DHT22;62581;47.342;7.908;2022-10-17T11:25:28;19.20;99.90
48836;DHT22;62581;47.342;7.908;2022-10-17T11:27:57;19.30;99.90
48836;DHT22;62581;47.342;7.908;2022-10-17T11:30:26;19.40;99.90
48836;DHT22;62581;47.342;7.908;2022-10-17T11:32:54;19.70;99.90
48836;DHT22;62581;47.342;7.908;2022-10-17T11:35:23;19.90;99.90
48836;DHT22;62581;47.342;7.908;2022-10-17T11:37:52;20.10;99.90
48836;DHT22;62581;47.342;7.908;2022-10-17T11:40:21;20.20;99.90
48836;DHT22;62581;47.342;7.908;2022-10-17T11:42:52;20.50;99.90
48836;DHT22;62581;47.342;7.908;2022-10-17T11:45:22;20.70;99.90
48836;DHT22;62581;47.342;7.908;2022-10-17T11:47:50;20.70;99.90
48836;DHT22;62581;47.342;7.908;2022-10-17T11:50:21;20.70;99.90
48836;DHT22;62581;47.342;7.908;2022-10-17T11:52:51;20.80;99.90
48836;DHT22;62581;47.342;7.908;2022-10-17T11:55:20;20.80;99.90
48836;DHT22;62581;47.342;7.908;2022-10-17T11:57:51;21.00;99.90
48836;DHT22;62581;47.342;7.908;2022-10-17T12:03:10;21.40;99.90
48836;DHT22;62581;47.342;7.908;2022-10-17T12:05:40;21.60;99.90
48836;DHT22;62581;47.342;7.908;2022-10-17T12:08:11;22.00;99.90
48836;DHT22;62581;47.342;7.908;2022-10-17T12:10:42;22.20;99.90
48836;DHT22;62581;47.342;7.908;2022-10-17T12:15:56;22.70;99.90
48836;DHT22;62581;47.342;7.908;2022-10-17T12:18:25;23.30;99.90
48836;DHT22;62581;47.342;7.908;2022-10-17T12:20:54;23.40;99.90
48836;DHT22;62581;47.342;7.908;2022-10-17T12:23:27;23.30;99.90
48836;DHT22;62581;47.342;7.908;2022-10-17T12:25:55;23.40;99.90
48836;DHT22;62581;47.342;7.908;2022-10-17T12:28:25;23.60;99.90
48836;DHT22;62581;47.342;7.908;2022-10-17T12:30:53;24.00;99.90
48836;DHT22;62581;47.342;7.908;2022-10-17T12:33:21;24.30;99.90
48836;DHT22;62581;47.342;7.908;2022-10-17T12:38:37;24.50;99.90
48836;DHT22;62581;47.342;7.908;2022-10-17T12:41:04;25.00;99.90
48836;DHT22;62581;47.342;7.908;2022-10-17T12:43:35;25.30;99.90
48836;DHT22;62581;47.342;7.908;2022-10-17T12:46:03;25.60;99.90
48836;DHT22;62581;47.342;7.908;2022-10-17T12:51:16;26.30;99.90
48836;DHT22;62581;47.342;7.908;2022-10-17T12:53:45;26.20;99.90
48836;DHT22;62581;47.342;7.908;2022-10-17T12:56:15;26.20;99.90
48836;DHT22;62581;47.342;7.908;2022-10-17T12:58:42;26.30;99.90
48836;DHT22;62581;47.342;7.908;2022-10-17T13:01:13;26.20;99.90
48836;DHT22;62581;47.342;7.908;2022-10-17T13:03:41;26.50;99.90
48836;DHT22;62581;47.342;7.908;2022-10-17T13:06:11;26.50;99.90
48836;DHT22;62581;47.342;7.908;2022-10-17T13:08:41;26.20;99.90
48836;DHT22;62581;47.342;7.908;2022-10-17T13:11:11;26.40;99.90
48836;DHT22;62581;47.342;7.908;2022-10-17T13:13:40;26.80;99.90
48836;DHT22;62581;47.342;7.908;2022-10-17T13:16:08;27.10;99.90
48836;DHT22;62581;47.342;7.908;2022-10-17T13:18:52;27.50;99.90
48836;DHT22;62581;47.342;7.908;2022-10-17T13:21:19;27.70;99.90
48836;DHT22;62581;47.342;7.908;2022-10-17T13:23:46;27.80;99.90
48836;DHT22;62581;47.342;7.908;2022-10-17T13:26:17;27.40;99.90
48836;DHT22;62581;47.342;7.908;2022-10-17T13:28:45;27.70;99.90
48836;DHT22;62581;47.342;7.908;2022-10-17T13:31:25;28.10;99.40
48836;DHT22;62581;47.342;7.908;2022-10-17T13:33:54;28.20;98.60
48836;DHT22;62581;47.342;7.908;2022-10-17T13:36:21;28.60;98.30
48836;DHT22;62581;47.342;7.908;2022-10-17T13:38:48;28.80;97.80
48836;DHT22;62581;47.342;7.908;2022-10-17T13:41:16;28.90;96.60
48836;DHT22;62581;47.342;7.908;2022-10-17T13:43:47;28.90;97.10
48836;DHT22;62581;47.342;7.908;2022-10-17T13:46:15;29.20;97.20
48836;DHT22;62581;47.342;7.908;2022-10-17T13:48:45;29.80;96.10
48836;DHT22;62581;47.342;7.908;2022-10-17T13:51:13;30.20;95.00
48836;DHT22;62581;47.342;7.908;2022-10-17T13:53:39;30.90;93.70
48836;DHT22;62581;47.342;7.908;2022-10-17T13:56:17;30.90;92.80
48836;DHT22;62581;47.342;7.908;2022-10-17T13:58:45;31.00;92.00
48836;DHT22;62581;47.342;7.908;2022-10-17T14:01:12;31.50;91.60
48836;DHT22;62581;47.342;7.908;2022-10-17T14:03:39;30.80;90.60
48836;DHT22;62581;47.342;7.908;2022-10-17T14:06:13;30.50;91.00
48836;DHT22;62581;47.342;7.908;2022-10-17T14:08:49;30.30;91.70
48836;DHT22;62581;47.342;7.908;2022-10-17T14:11:20;30.30;91.30
48836;DHT22;62581;47.342;7.908;2022-10-17T14:13:47;30.50;91.60
48836;DHT22;62581;47.342;7.908;2022-10-17T14:16:15;30.90;91.20
48836;DHT22;62581;47.342;7.908;2022-10-17T14:18:44;31.40;90.20
48836;DHT22;62581;47.342;7.908;2022-10-17T14:21:17;31.80;89.30
48836;DHT22;62581;47.342;7.908;2022-10-17T14:23:44;32.10;87.40
48836;DHT22;62581;47.342;7.908;2022-10-17T14:26:12;32.50;87.30
48836;DHT22;62581;47.342;7.908;2022-10-17T14:28:41;32.30;84.70
48836;DHT22;62581;47.342;7.908;2022-10-17T14:31:10;32.80;84.20
48836;DHT22;62581;47.342;7.908;2022-10-17T14:33:41;33.20;82.60
48836;DHT22;62581;47.342;7.908;2022-10-17T14:36:09;33.60;82.00
48836;DHT22;62581;47.342;7.908;2022-10-17T14:38:36;33.80;80.00
48836;DHT22;62581;47.342;7.908;2022-10-17T14:41:04;33.30;79.20
48836;DHT22;62581;47.342;7.908;2022-10-17T14:43:33;33.30;79.90
48836;DHT22;62581;47.342;7.908;2022-10-17T14:46:01;33.50;79.00
48836;DHT22;62581;47.342;7.908;2022-10-17T14:48:28;34.00;79.00
48836;DHT22;62581;47.342;7.908;2022-10-17T14:51:06;34.40;77.60
48836;DHT22;62581;47.342;7.908;2022-10-17T14:53:33;34.50;76.30
48836;DHT22;62581;47.342;7.908;2022-10-17T14:56:00;34.10;76.70
48836;DHT22;62581;47.342;7.908;2022-10-17T14:58:28;34.00;76.80
48836;DHT22;62581;47.342;7.908;2022-10-17T15:00:55;34.30;76.50
48836;DHT22;62581;47.342;7.908;2022-10-17T15:03:24;34.40;75.60
48836;DHT22;62581;47.342;7.908;2022-10-17T15:05:53;34.60;74.50
48836;DHT22;62581;47.342;7.908;2022-10-17T15:08:20;34.70;75.10
48836;DHT22;62581;47.342;7.908;2022-10-17T15:10:48;34.80;74.20
48836;DHT22;62581;47.342;7.908;2022-10-17T15:13:15;35.20;73.70
48836;DHT22;62581;47.342;7.908;2022-10-17T15:15:42;35.10;72.50
48836;DHT22;62581;47.342;7.908;2022-10-17T15:18:10;35.10;73.90
48836;DHT22;62581;47.342;7.908;2022-10-17T15:20:40;35.00;74.30
48836;DHT22;62581;47.342;7.908;2022-10-17T15:23:07;35.20;71.10
48836;DHT22;62581;47.342;7.908;2022-10-17T15:25:34;35.20;71.50
48836;DHT22;62581;47.342;7.908;2022-10-17T15:28:00;35.30;73.60
48836;DHT22;62581;47.342;7.908;2022-10-17T15:30:28;35.00;74.10
48836;DHT22;62581;47.342;7.908;2022-10-17T15:32:56;34.70;75.00
48836;DHT22;62581;47.342;7.908;2022-10-17T15:35:23;34.50;74.20
48836;DHT22;62581;47.342;7.908;2022-10-17T15:37:52;33.90;75.50
48836;DHT22;62581;47.342;7.908;2022-10-17T15:40:21;33.40;76.90
48836;DHT22;62581;47.342;7.908;2022-10-17T15:42:48;33.00;80.00
48836;DHT22;62581;47.342;7.908;2022-10-17T15:45:16;32.20;81.20
48836;DHT22;62581;47.342;7.908;2022-10-17T15:47:47;31.40;84.00
48836;DHT22;62581;47.342;7.908;2022-10-17T15:50:15;30.30;87.10
48836;DHT22;62581;47.342;7.908;2022-10-17T15:52:42;29.20;90.40
48836;DHT22;62581;47.342;7.908;2022-10-17T15:55:12;28.50;91.50
48836;DHT22;62581;47.342;7.908;2022-10-17T15:57:40;27.80;92.70
48836;DHT22;62581;47.342;7.908;2022-10-17T16:00:11;27.10;94.10